FDUS

Musi Airport

Musi, Swaziland
METAR FDUS 170900Z AUTO 09005KT //// // ////// 27/17 Q1019
Observed Flight Rules
Jan-17 @ 09:00 UTC (2 hours ago)
Wind
90° at 5 knots
Temperatures Readings
Current 27°C / 81°F
Dewpoint 17°C / 63°F
Humidity 54%
Altimeter 30.09" Hg
Pressure 1019 hPa
Elevation 956
METAR FDUS 170900Z AUTO 09005KT //// // ////// 27/17 Q1019
Observed Flight Rules
Jan-17 @ 09:00 UTC
(2 hours ago)
Wind
90° at 5 knots
Temperature Dewpoint
27°C / 81°F 17°C / 63°F
Humidity Altimeter Pressure
54% 30.09" Hg 1019 hPa